Time;durP1;ratioP1;P1;durP2;ratioP2;P2;SDS_P1;SDS_P2;PMS_P1;PMS_P2;Temp;Humidity;BMP_temperature;BMP_pressure;BME280_temperature;BME280_humidity;BME280_pressure;Samples;Min_cycle;Max_cycle;Signal;HPM_P1;HPM_P2
2021/03/11 00:00:45;;;;;;;30.10;15.90;;;-2.90;66.60;;;;;;5046499;28;20369;-71
2021/03/11 00:03:11;;;;;;;32.33;17.77;;;-3.00;66.70;;;;;;5046614;28;20075;-71
2021/03/11 00:05:39;;;;;;;34.90;18.45;;;-3.00;66.90;;;;;;5052373;28;20060;-71
2021/03/11 00:08:05;;;;;;;34.83;18.50;;;-3.00;66.90;;;;;;5039631;28;20471;-71
2021/03/11 00:10:32;;;;;;;37.60;18.85;;;-3.00;67.00;;;;;;5053604;28;20038;-71
2021/03/11 00:12:58;;;;;;;32.92;16.92;;;-3.00;67.10;;;;;;5052063;28;20025;-71
2021/03/11 00:15:24;;;;;;;36.25;18.45;;;-3.10;67.10;;;;;;5043076;28;20383;-72
2021/03/11 00:17:51;;;;;;;33.78;17.38;;;-3.10;67.30;;;;;;5051395;28;20471;-71
2021/03/11 00:20:20;;;;;;;27.88;15.13;;;-3.10;67.30;;;;;;5038210;28;20025;-71
2021/03/11 00:22:45;;;;;;;26.55;14.05;;;-3.10;67.50;;;;;;5053698;28;20029;-71
2021/03/11 00:25:13;;;;;;;25.73;13.88;;;-3.20;67.50;;;;;;5048148;28;20041;-70
2021/03/11 00:27:40;;;;;;;31.02;16.25;;;-3.20;67.60;;;;;;5051638;28;20098;-69
2021/03/11 00:30:07;;;;;;;39.17;20.83;;;-3.10;67.60;;;;;;5051262;28;20033;-69
2021/03/11 00:32:33;;;;;;;40.50;20.10;;;-3.20;67.70;;;;;;5051090;28;20032;-69
2021/03/11 00:34:59;;;;;;;34.00;17.83;;;-3.20;67.90;;;;;;5047461;28;20033;-71
2021/03/11 00:37:25;;;;;;;36.17;17.70;;;-3.20;68.00;;;;;;5046767;28;20056;-70
2021/03/11 00:39:51;;;;;;;28.33;13.88;;;-3.20;68.20;;;;;;5043489;28;20032;-70
2021/03/11 00:42:17;;;;;;;28.45;14.07;;;-3.20;68.20;;;;;;5050025;28;20033;-71
2021/03/11 00:44:43;;;;;;;26.27;13.30;;;-3.10;68.30;;;;;;5051295;28;20029;-70
2021/03/11 00:47:09;;;;;;;28.10;13.98;;;-3.10;68.30;;;;;;5045372;28;20056;-70
2021/03/11 00:49:35;;;;;;;25.83;12.90;;;-3.10;68.40;;;;;;5040464;28;20420;-70
2021/03/11 00:52:02;;;;;;;25.42;13.10;;;-3.10;68.40;;;;;;5046173;28;20536;-70
2021/03/11 00:54:28;;;;;;;28.75;13.10;;;-3.10;68.50;;;;;;5051614;28;20033;-70
2021/03/11 00:56:54;;;;;;;25.08;11.75;;;-3.10;68.50;;;;;;5052690;28;20029;-70
2021/03/11 00:59:20;;;;;;;25.13;13.20;;;-3.10;68.50;;;;;;5050741;28;20044;-70
2021/03/11 01:01:45;;;;;;;25.50;12.60;;;-3.10;68.50;;;;;;5037834;28;20361;-70
2021/03/11 01:04:12;;;;;;;26.30;13.55;;;-3.10;68.50;;;;;;5044210;28;20044;-70
2021/03/11 01:06:38;;;;;;;25.73;13.00;;;-3.10;68.60;;;;;;5048974;28;20044;-70
2021/03/11 01:09:05;;;;;;;24.92;12.85;;;-3.10;68.60;;;;;;5052358;28;20450;-70
2021/03/11 01:11:31;;;;;;;29.05;14.38;;;-3.10;68.60;;;;;;5041945;28;20075;-70
2021/03/11 01:13:57;;;;;;;27.02;15.45;;;-3.10;68.60;;;;;;5049094;28;20033;-70
2021/03/11 01:16:22;;;;;;;30.40;16.02;;;-3.20;68.60;;;;;;5039115;28;20025;-70
2021/03/11 01:18:48;;;;;;;34.42;16.75;;;-3.20;68.60;;;;;;5051276;28;20032;-70
2021/03/11 01:21:14;;;;;;;35.97;15.88;;;-3.20;68.70;;;;;;5042561;28;20388;-70
2021/03/11 01:23:40;;;;;;;35.92;17.33;;;-3.20;68.80;;;;;;5046194;28;20067;-71
2021/03/11 01:26:05;;;;;;;37.67;17.17;;;-3.20;68.80;;;;;;5051508;28;20124;-70
2021/03/11 01:28:31;;;;;;;41.28;16.08;;;-3.20;68.80;;;;;;5039138;28;20029;-70
2021/03/11 01:30:57;;;;;;;34.53;16.52;;;-3.20;68.70;;;;;;5051423;28;20053;-70
2021/03/11 01:33:23;;;;;;;39.80;18.70;;;-3.20;68.70;;;;;;5043943;28;20025;-70
2021/03/11 01:35:49;;;;;;;38.72;17.05;;;-3.30;68.70;;;;;;5047923;28;20025;-70
2021/03/11 01:38:15;;;;;;;35.85;16.45;;;-3.30;68.80;;;;;;5049948;28;20116;-70
2021/03/11 01:40:40;;;;;;;31.00;15.95;;;-3.30;68.90;;;;;;5052584;28;20059;-70
2021/03/11 01:43:06;;;;;;;36.25;17.67;;;-3.30;69.00;;;;;;5054509;28;20494;-70
2021/03/11 01:45:32;;;;;;;37.40;16.92;;;-3.30;69.00;;;;;;5056125;28;20055;-70
2021/03/11 01:47:58;;;;;;;33.30;18.08;;;-3.30;69.10;;;;;;5044434;28;20124;-71
2021/03/11 01:50:24;;;;;;;43.42;19.80;;;-3.30;69.20;;;;;;5050420;28;20029;-70
2021/03/11 01:52:51;;;;;;;42.78;18.90;;;-3.30;69.20;;;;;;5055213;28;20063;-70
2021/03/11 01:55:17;;;;;;;32.72;16.83;;;-3.30;69.20;;;;;;5055457;28;20464;-70
2021/03/11 01:57:45;;;;;;;31.08;15.18;;;-3.30;69.20;;;;;;5054966;28;20056;-70
2021/03/11 02:00:12;;;;;;;39.10;16.73;;;-3.30;69.20;;;;;;5054928;28;20077;-70
2021/03/11 02:02:45;;;;;;;45.88;20.00;;;-3.30;69.30;;;;;;5056255;28;20111;-70
2021/03/11 02:05:14;;;;;;;50.10;22.98;;;-3.30;69.50;;;;;;5054580;28;20064;-70
2021/03/11 02:07:40;;;;;;;62.20;26.77;;;-3.30;69.40;;;;;;5054608;28;20494;-70
2021/03/11 02:10:08;;;;;;;52.42;24.45;;;-3.40;69.40;;;;;;5044038;28;20025;-70
2021/03/11 02:12:58;;;;;;;43.47;20.92;;;-3.40;69.50;;;;;;5052329;28;20036;-70
2021/03/11 02:15:49;;;;;;;46.40;20.38;;;-3.40;69.60;;;;;;5056552;28;20041;-70
2021/03/11 02:18:39;;;;;;;43.63;18.92;;;-3.40;69.60;;;;;;5049871;28;20029;-71
2021/03/11 02:21:13;;;;;;;36.00;17.55;;;-3.40;69.90;;;;;;5047288;28;20047;-70
2021/03/11 02:24:16;;;;;;;33.63;14.20;;;-3.40;69.70;;;;;;5044267;28;20037;-70
2021/03/11 02:27:08;;;;;;;30.48;13.52;;;-3.40;70.00;;;;;;5043475;28;20029;-69
2021/03/11 02:29:38;;;;;;;33.97;15.18;;;-3.40;69.90;;;;;;5053273;28;20082;-70
2021/03/11 02:32:07;;;;;;;29.67;13.93;;;-3.30;69.70;;;;;;5055513;28;20037;-70
2021/03/11 02:34:44;;;;;;;27.33;14.80;;;-3.30;69.80;;;;;;5054223;28;20029;-70
2021/03/11 02:37:14;;;;;;;36.80;16.95;;;-3.30;69.80;;;;;;5053883;28;20029;-70
2021/03/11 02:39:49;;;;;;;41.40;19.48;;;-3.40;69.70;;;;;;5053681;28;20491;-70
2021/03/11 02:42:16;;;;;;;38.95;17.63;;;-3.40;69.80;;;;;;5051194;28;20025;-70
2021/03/11 02:44:42;;;;;;;39.58;19.17;;;-3.40;69.80;;;;;;5047382;28;20037;-70
2021/03/11 02:47:09;;;;;;;46.63;23.27;;;-3.40;69.80;;;;;;5055062;28;20373;-70
2021/03/11 02:49:35;;;;;;;40.45;21.42;;;-3.40;69.80;;;;;;5052714;28;20025;-71
2021/03/11 02:52:01;;;;;;;47.05;21.67;;;-3.40;70.00;;;;;;5041682;28;20021;-70
2021/03/11 02:54:28;;;;;;;47.17;21.42;;;-3.40;69.90;;;;;;5045762;28;20025;-70
2021/03/11 02:56:57;;;;;;;46.40;20.95;;;-3.50;69.80;;;;;;5047658;28;20121;-70
2021/03/11 02:59:23;;;;;;;43.38;19.80;;;-3.50;69.90;;;;;;5054629;28;20422;-70
2021/03/11 03:01:50;;;;;;;46.67;23.00;;;-3.50;70.00;;;;;;5054771;28;20021;-70
2021/03/11 03:04:17;;;;;;;46.15;23.27;;;-3.50;70.10;;;;;;5050489;28;20048;-70
2021/03/11 03:06:44;;;;;;;46.78;24.52;;;-3.50;70.20;;;;;;5052209;28;20036;-71
2021/03/11 03:09:10;;;;;;;42.40;21.65;;;-3.60;70.10;;;;;;5051723;28;20029;-70
2021/03/11 03:11:38;;;;;;;42.33;22.45;;;-3.60;70.30;;;;;;5053184;28;20410;-70
2021/03/11 03:14:06;;;;;;;33.85;17.92;;;-3.60;70.30;;;;;;5051413;28;20496;-70
2021/03/11 03:16:32;;;;;;;44.88;22.77;;;-3.60;70.50;;;;;;5047093;28;20374;-70
2021/03/11 03:19:00;;;;;;;45.70;23.52;;;-3.60;70.60;;;;;;5053283;28;20025;-70
2021/03/11 03:21:25;;;;;;;46.72;24.08;;;-3.60;70.60;;;;;;5047580;28;20033;-71
2021/03/11 03:23:52;;;;;;;48.28;25.50;;;-3.60;70.70;;;;;;5049642;28;20438;-71
2021/03/11 03:26:18;;;;;;;68.53;33.30;;;-3.50;71.40;;;;;;5053648;28;20021;-71
2021/03/11 03:28:44;;;;;;;81.70;35.53;;;-3.50;70.80;;;;;;5048197;28;20029;-70
2021/03/11 03:31:10;;;;;;;66.47;31.27;;;-3.50;70.90;;;;;;5053710;28;20390;-70
2021/03/11 03:33:36;;;;;;;59.95;27.92;;;-3.50;71.00;;;;;;5051197;28;20039;-70
2021/03/11 03:36:03;;;;;;;70.68;33.13;;;-3.50;70.90;;;;;;5050545;28;20100;-70
2021/03/11 03:38:28;;;;;;;72.53;30.88;;;-3.50;70.80;;;;;;5051492;28;20448;-70
2021/03/11 03:40:57;;;;;;;70.18;32.33;;;-3.50;70.90;;;;;;5049789;28;20116;-70
2021/03/11 03:43:30;;;;;;;55.60;25.83;;;-3.50;71.00;;;;;;5041552;28;20037;-70
2021/03/11 03:46:00;;;;;;;70.63;30.63;;;-3.50;71.00;;;;;;5041326;28;20580;-70
2021/03/11 03:48:36;;;;;;;54.88;27.98;;;-3.40;71.10;;;;;;5049886;28;20502;-71
2021/03/11 03:51:03;;;;;;;49.28;23.30;;;-3.40;71.00;;;;;;5035497;28;20036;-70
2021/03/11 03:53:39;;;;;;;46.72;23.50;;;-3.40;71.00;;;;;;5047964;28;20048;-70
2021/03/11 03:56:09;;;;;;;54.92;26.40;;;-3.40;71.10;;;;;;5052831;28;20025;-70
2021/03/11 03:58:36;;;;;;;45.85;21.77;;;-3.40;70.70;;;;;;5044099;28;20434;-70
2021/03/11 04:01:03;;;;;;;43.10;20.23;;;-3.40;70.60;;;;;;5037496;28;20048;-71
2021/03/11 04:03:29;;;;;;;34.70;16.65;;;-3.40;70.80;;;;;;5037144;28;20029;-68
2021/03/11 04:05:56;;;;;;;31.73;15.93;;;-3.40;70.80;;;;;;5037580;28;20534;-68
2021/03/11 04:08:23;;;;;;;35.42;14.68;;;-3.30;70.90;;;;;;5034815;28;20033;-68
2021/03/11 04:10:49;;;;;;;36.83;17.45;;;-3.30;70.80;;;;;;5043079;28;20029;-70
2021/03/11 04:13:16;;;;;;;41.80;20.42;;;-3.30;70.50;;;;;;5039403;28;20033;-68
2021/03/11 04:15:42;;;;;;;46.40;20.52;;;-3.30;70.40;;;;;;5042768;28;20376;-68
2021/03/11 04:18:09;;;;;;;49.28;23.35;;;-3.20;71.10;;;;;;5052364;28;20021;-68
2021/03/11 04:20:36;;;;;;;43.22;19.70;;;-3.20;70.50;;;;;;5046765;28;20078;-68
2021/03/11 04:23:02;;;;;;;32.42;15.65;;;-3.20;70.70;;;;;;5046745;28;20035;-69
2021/03/11 04:25:28;;;;;;;36.33;17.13;;;-3.10;70.90;;;;;;5048633;28;20395;-69
2021/03/11 04:27:54;;;;;;;34.55;16.05;;;-3.00;71.10;;;;;;5044021;28;20030;-68
2021/03/11 04:30:20;;;;;;;36.47;17.75;;;-2.80;71.50;;;;;;5043427;28;20075;-68
2021/03/11 04:32:47;;;;;;;34.45;16.77;;;-2.60;71.80;;;;;;5047131;28;20475;-70
2021/03/11 04:35:12;;;;;;;37.47;16.90;;;-2.40;71.80;;;;;;5042401;28;20021;-68
2021/03/11 04:37:39;;;;;;;39.55;17.65;;;-2.10;72.30;;;;;;5045348;28;20051;-68
2021/03/11 04:40:07;;;;;;;40.15;19.38;;;-1.70;72.30;;;;;;5049220;28;20534;-68
2021/03/11 04:42:34;;;;;;;29.00;14.48;;;-1.40;71.90;;;;;;5053305;28;20466;-68
2021/03/11 04:45:02;;;;;;;32.83;15.43;;;-1.10;71.20;;;;;;5039218;28;20029;-69
2021/03/11 04:47:30;;;;;;;30.77;14.13;;;-0.80;71.00;;;;;;5049263;28;20025;-66
2021/03/11 04:49:59;;;;;;;30.77;15.55;;;-0.40;71.10;;;;;;5047631;28;20022;-68
2021/03/11 04:52:26;;;;;;;24.00;12.93;;;0.10;71.20;;;;;;5036321;28;20372;-69
2021/03/11 04:54:52;;;;;;;28.90;14.13;;;0.50;71.00;;;;;;5038435;28;20113;-68
2021/03/11 04:57:17;;;;;;;30.40;15.23;;;1.10;70.50;;;;;;5049618;28;20435;-70
2021/03/11 04:59:43;;;;;;;25.83;12.82;;;1.50;69.50;;;;;;5045527;28;20090;-70
2021/03/11 05:02:10;;;;;;;25.27;14.40;;;1.80;68.50;;;;;;5041279;28;20460;-69
2021/03/11 05:04:37;;;;;;;50.90;23.65;;;2.20;68.00;;;;;;5039413;28;20131;-70
2021/03/11 05:07:03;;;;;;;48.72;24.42;;;2.70;67.50;;;;;;5046134;28;20029;-71
2021/03/11 05:09:29;;;;;;;30.65;15.77;;;3.10;66.60;;;;;;5044739;28;20348;-70
2021/03/11 05:11:54;;;;;;;51.33;26.73;;;3.60;65.30;;;;;;5043332;28;20021;-70
2021/03/11 05:14:20;;;;;;;51.45;26.98;;;3.90;64.40;;;;;;5045675;28;20069;-70
2021/03/11 05:16:46;;;;;;;42.58;22.95;;;4.30;63.00;;;;;;5039531;28;20079;-70
2021/03/11 05:19:11;;;;;;;56.90;29.02;;;4.70;61.90;;;;;;5043847;28;20021;-70
2021/03/11 05:21:38;;;;;;;65.72;35.20;;;4.90;60.90;;;;;;5048043;28;20021;-70
2021/03/11 05:24:04;;;;;;;43.35;23.70;;;5.20;60.30;;;;;;5043320;28;20092;-70
2021/03/11 05:26:30;;;;;;;31.63;17.85;;;5.30;59.70;;;;;;5043731;28;20033;-71
2021/03/11 05:28:55;;;;;;;28.90;18.15;;;5.70;59.00;;;;;;5041174;28;20032;-71
2021/03/11 05:31:21;;;;;;;32.38;17.73;;;6.00;57.80;;;;;;5040092;28;20357;-71
2021/03/11 05:33:47;;;;;;;44.83;24.38;;;6.30;56.90;;;;;;5045884;28;20108;-71
2021/03/11 05:36:13;;;;;;;56.60;28.80;;;6.50;56.20;;;;;;5040014;28;20105;-72
2021/03/11 05:38:42;;;;;;;50.88;25.38;;;6.70;55.00;;;;;;5041008;28;20025;-72
2021/03/11 05:41:08;;;;;;;35.92;19.63;;;6.90;54.50;;;;;;5040983;28;20025;-72
2021/03/11 05:43:35;;;;;;;33.45;19.10;;;7.30;53.60;;;;;;5041109;28;20033;-71
2021/03/11 05:46:02;;;;;;;30.55;18.38;;;7.60;52.50;;;;;;5037881;28;20029;-71
2021/03/11 05:48:28;;;;;;;32.58;17.05;;;7.80;51.50;;;;;;5052061;28;20021;-71
2021/03/11 05:50:54;;;;;;;28.85;16.60;;;7.90;50.20;;;;;;5044455;28;20383;-73
2021/03/11 05:53:20;;;;;;;35.28;19.40;;;7.90;50.10;;;;;;5042831;28;20017;-72
2021/03/11 05:55:46;;;;;;;31.08;17.48;;;8.20;49.70;;;;;;5040781;28;20029;-72
2021/03/11 05:58:12;;;;;;;29.80;16.45;;;8.40;48.50;;;;;;5041737;28;20053;-72
2021/03/11 06:00:38;;;;;;;22.02;11.63;;;8.30;47.20;;;;;;5038508;28;20103;-72
2021/03/11 06:03:05;;;;;;;23.92;14.18;;;8.20;46.30;;;;;;5038178;28;20033;-73
2021/03/11 06:05:32;;;;;;;28.20;15.32;;;7.90;45.50;;;;;;5041269;28;20132;-72
2021/03/11 06:07:58;;;;;;;26.38;13.30;;;7.70;45.80;;;;;;5031600;28;20116;-72
2021/03/11 06:10:24;;;;;;;28.60;15.35;;;7.60;46.00;;;;;;5040822;28;20029;-72
2021/03/11 06:12:52;;;;;;;24.27;14.27;;;7.50;46.50;;;;;;5035861;28;20115;-73
2021/03/11 06:15:20;;;;;;;24.77;14.02;;;7.70;46.60;;;;;;5043900;28;20368;-72
2021/03/11 06:17:48;;;;;;;32.70;19.20;;;7.90;46.50;;;;;;5040439;28;20029;-73
2021/03/11 06:20:13;;;;;;;35.83;17.35;;;8.30;46.20;;;;;;5036351;28;20108;-72
2021/03/11 06:22:39;;;;;;;27.83;18.05;;;8.70;45.90;;;;;;5040866;28;20462;-73
2021/03/11 06:25:07;;;;;;;29.58;16.27;;;8.90;45.70;;;;;;5039611;28;20128;-73
2021/03/11 06:27:32;;;;;;;27.58;16.00;;;9.10;45.10;;;;;;5052635;28;20419;-73
2021/03/11 06:29:58;;;;;;;33.72;16.52;;;9.40;44.90;;;;;;5053928;28;20025;-73
2021/03/11 06:32:25;;;;;;;30.00;16.80;;;9.50;44.60;;;;;;5049898;28;20591;-71
2021/03/11 06:34:51;;;;;;;31.17;18.58;;;9.90;44.30;;;;;;5053231;28;20121;-71
2021/03/11 06:37:41;;;;;;;38.70;21.95;;;10.10;43.50;;;;;;5045833;28;20114;-74
2021/03/11 06:40:33;;;;;;;28.25;15.13;;;10.40;42.70;;;;;;5049560;28;20356;-74
2021/03/11 06:43:13;;;;;;;29.23;15.20;;;10.50;42.30;;;;;;5052466;28;20045;-77
2021/03/11 06:45:39;;;;;;;30.23;15.18;;;10.80;41.80;;;;;;5040793;28;20123;-79
2021/03/11 06:48:20;;;;;;;23.77;13.68;;;11.00;41.20;;;;;;5049675;28;20036;-79
2021/03/11 06:50:46;;;;;;;27.77;16.02;;;11.30;40.30;;;;;;5062043;28;20170;-78
2021/03/11 06:53:11;;;;;;;39.50;21.85;;;11.00;40.10;;;;;;5059441;28;20024;-79
2021/03/11 06:55:37;;;;;;;29.00;15.88;;;10.90;39.80;;;;;;5067611;28;20051;-80
2021/03/11 06:58:31;;;;;;;35.17;18.58;;;11.10;40.00;;;;;;5062675;28;20031;-80
2021/03/11 07:01:08;;;;;;;22.27;12.07;;;11.40;39.60;;;;;;5051110;28;20040;-80
2021/03/11 07:03:43;;;;;;;28.63;15.70;;;11.60;39.20;;;;;;5043154;28;20029;-78
2021/03/11 07:06:11;;;;;;;23.38;13.98;;;11.80;38.80;;;;;;5050656;28;20081;-72
2021/03/11 07:08:50;;;;;;;24.00;12.30;;;12.00;38.40;;;;;;5048387;28;20033;-74
2021/03/11 07:11:15;;;;;;;26.42;12.82;;;12.20;37.60;;;;;;5046858;28;20533;-74
2021/03/11 07:13:43;;;;;;;30.52;15.88;;;12.30;37.50;;;;;;5048750;28;20033;-81
2021/03/11 07:16:16;;;;;;;30.50;17.40;;;12.30;37.40;;;;;;5037045;28;20029;-72
2021/03/11 07:18:42;;;;;;;30.67;15.77;;;12.60;37.00;;;;;;5047580;28;20104;-67
2021/03/11 07:21:09;;;;;;;27.95;14.95;;;12.90;36.50;;;;;;5040834;28;20025;-68
2021/03/11 07:23:49;;;;;;;27.65;15.13;;;12.90;35.70;;;;;;5053396;28;20111;-70
2021/03/11 07:26:19;;;;;;;24.08;15.15;;;13.00;35.10;;;;;;5037016;28;20407;-72
2021/03/11 07:28:45;;;;;;;27.00;14.52;;;13.00;35.10;;;;;;5048234;28;20476;-70
2021/03/11 07:31:11;;;;;;;28.67;14.40;;;13.20;35.20;;;;;;5052736;28;20138;-69
2021/03/11 07:33:38;;;;;;;23.52;13.65;;;13.40;35.00;;;;;;5053268;28;20036;-68
2021/03/11 07:36:05;;;;;;;28.00;14.75;;;13.60;34.40;;;;;;5038368;28;20021;-70
2021/03/11 07:38:33;;;;;;;17.33;11.10;;;13.70;33.90;;;;;;5041955;28;20087;-70
2021/03/11 07:41:01;;;;;;;29.42;15.23;;;13.90;32.90;;;;;;5050312;28;20025;-72
2021/03/11 07:43:28;;;;;;;20.75;11.55;;;13.60;32.90;;;;;;5051993;28;20032;-69
2021/03/11 07:46:05;;;;;;;30.10;16.98;;;13.60;32.80;;;;;;5053693;28;20108;-68
2021/03/11 07:48:31;;;;;;;29.85;19.92;;;13.60;33.30;;;;;;5054313;28;20100;-68
2021/03/11 07:50:58;;;;;;;12.88;8.50;;;13.90;33.50;;;;;;5053940;28;20048;-68
2021/03/11 07:53:25;;;;;;;53.22;15.38;;;14.30;32.20;;;;;;5052631;28;20115;-68
2021/03/11 07:55:55;;;;;;;30.98;17.77;;;14.00;31.40;;;;;;5054116;28;20033;-68
2021/03/11 07:58:24;;;;;;;46.40;29.05;;;14.00;32.00;;;;;;5052577;28;20036;-68
2021/03/11 08:00:53;;;;;;;38.10;23.98;;;14.30;32.20;;;;;;5053103;28;20423;-68
2021/03/11 08:03:24;;;;;;;27.13;13.55;;;14.30;32.00;;;;;;5053840;28;20461;-68
2021/03/11 08:05:50;;;;;;;24.15;12.75;;;14.40;31.40;;;;;;5053794;28;20037;-68
2021/03/11 08:08:20;;;;;;;17.98;13.60;;;14.40;31.00;;;;;;5054180;28;20357;-68
2021/03/11 08:10:47;;;;;;;17.23;10.02;;;14.30;30.90;;;;;;5053849;28;20348;-68
2021/03/11 08:13:38;;;;;;;20.90;10.13;;;14.10;31.30;;;;;;5053846;28;20028;-68
2021/03/11 08:16:16;;;;;;;18.45;10.35;;;13.80;30.20;;;;;;5041367;28;20029;-68
2021/03/11 08:18:44;;;;;;;15.18;9.32;;;13.30;30.10;;;;;;5053576;28;20052;-68
2021/03/11 08:21:24;;;;;;;17.58;9.45;;;12.90;30.80;;;;;;5053368;28;20099;-68
2021/03/11 08:23:57;;;;;;;20.20;10.15;;;12.90;31.10;;;;;;5052204;28;20032;-68
2021/03/11 08:26:38;;;;;;;21.50;11.35;;;12.90;30.90;;;;;;5054057;28;20108;-68
2021/03/11 08:29:19;;;;;;;27.58;14.68;;;13.10;31.40;;;;;;5053191;28;20033;-68
2021/03/11 08:31:46;;;;;;;29.40;14.20;;;13.20;30.30;;;;;;5053721;28;20157;-68
2021/03/11 08:34:35;;;;;;;16.85;9.73;;;13.30;30.30;;;;;;5052219;28;20086;-69
2021/03/11 08:37:21;;;;;;;18.20;9.43;;;13.50;29.90;;;;;;5053227;28;20025;-69
2021/03/11 08:39:47;;;;;;;15.27;8.07;;;13.70;29.80;;;;;;5052086;28;20029;-68
2021/03/11 08:42:49;;;;;;;16.20;8.20;;;13.60;28.80;;;;;;5052228;28;20494;-68
2021/03/11 08:45:34;;;;;;;12.55;7.47;;;13.10;28.60;;;;;;5036701;28;20065;-68
2021/03/11 08:48:19;;;;;;;13.73;7.30;;;12.80;28.60;;;;;;5053061;28;20525;-69
2021/03/11 08:50:47;;;;;;;21.23;11.32;;;12.80;28.70;;;;;;5051772;28;20032;-68
2021/03/11 08:53:35;;;;;;;21.45;12.30;;;12.90;28.80;;;;;;5052700;28;20471;-68
2021/03/11 08:56:02;;;;;;;20.83;12.15;;;13.10;28.80;;;;;;5051696;28;20426;-68
2021/03/11 08:58:29;;;;;;;20.98;10.02;;;13.10;28.60;;;;;;5052727;28;20460;-68
2021/03/11 09:00:58;;;;;;;13.02;7.80;;;13.00;28.00;;;;;;5053286;28;20471;-68
2021/03/11 09:03:44;;;;;;;15.38;9.50;;;12.80;28.10;;;;;;5051770;28;20480;-68
2021/03/11 09:06:12;;;;;;;11.10;6.65;;;12.70;28.10;;;;;;5051790;28;20550;-68
2021/03/11 09:08:54;;;;;;;14.70;6.75;;;12.40;27.80;;;;;;5049395;28;20056;-68
2021/03/11 09:11:23;;;;;;;14.25;7.90;;;12.40;28.10;;;;;;5043474;28;20021;-68
2021/03/11 09:13:51;;;;;;;14.05;8.35;;;12.50;27.80;;;;;;5052897;28;20037;-68
2021/03/11 09:16:24;;;;;;;12.85;7.32;;;12.70;27.90;;;;;;5051687;28;20033;-68
2021/03/11 09:18:57;;;;;;;14.07;7.30;;;12.50;27.60;;;;;;5051556;28;20036;-68
2021/03/11 09:21:32;;;;;;;15.95;9.45;;;12.40;27.90;;;;;;5051229;28;20025;-68
2021/03/11 09:23:58;;;;;;;14.77;8.13;;;12.30;27.50;;;;;;5051343;28;20029;-68
2021/03/11 09:26:28;;;;;;;14.98;8.35;;;11.70;27.80;;;;;;5053100;28;20079;-68
2021/03/11 09:28:54;;;;;;;14.82;8.30;;;11.60;27.90;;;;;;5052784;28;20106;-68
2021/03/11 09:31:25;;;;;;;9.55;5.63;;;11.40;28.30;;;;;;5051366;28;20071;-67
2021/03/11 09:33:52;;;;;;;14.07;8.35;;;11.50;27.90;;;;;;5052796;28;20075;-67
2021/03/11 09:36:17;;;;;;;13.15;7.68;;;11.30;27.90;;;;;;5052518;28;20039;-67
2021/03/11 09:38:44;;;;;;;11.45;6.90;;;11.10;27.90;;;;;;5053188;28;20479;-67
2021/03/11 09:41:10;;;;;;;11.20;6.95;;;10.40;27.90;;;;;;5051190;28;20032;-67
2021/03/11 09:43:38;;;;;;;15.88;7.15;;;9.90;28.20;;;;;;5052978;28;20056;-67
2021/03/11 09:46:11;;;;;;;11.73;6.90;;;9.60;28.50;;;;;;5052515;28;20349;-67
2021/03/11 09:48:55;;;;;;;23.73;7.05;;;9.70;28.90;;;;;;5051325;28;20029;-67
2021/03/11 09:51:26;;;;;;;11.50;6.40;;;10.00;28.90;;;;;;5051189;28;20426;-67
2021/03/11 09:53:54;;;;;;;14.40;6.90;;;10.10;28.60;;;;;;5039593;28;20017;-67
2021/03/11 09:56:31;;;;;;;13.82;7.47;;;10.20;28.50;;;;;;5052463;28;20028;-69
2021/03/11 09:59:00;;;;;;;14.52;7.90;;;10.30;28.70;;;;;;5039454;28;20455;-69
2021/03/11 10:01:47;;;;;;;12.32;7.25;;;10.70;28.80;;;;;;5052775;28;20112;-67
2021/03/11 10:04:23;;;;;;;16.10;8.32;;;11.10;28.50;;;;;;5043799;28;20039;-67
2021/03/11 10:06:55;;;;;;;16.35;7.70;;;11.00;28.50;;;;;;5056190;28;20033;-68
2021/03/11 10:09:22;;;;;;;11.98;6.55;;;11.00;28.40;;;;;;5056036;28;20025;-68
2021/03/11 10:11:52;;;;;;;11.30;7.53;;;10.90;28.30;;;;;;5056129;28;20100;-69
2021/03/11 10:14:21;;;;;;;12.77;7.03;;;10.90;28.60;;;;;;5056287;28;20021;-66
2021/03/11 10:16:49;;;;;;;19.40;8.25;;;10.80;28.20;;;;;;5056104;28;20521;-68
2021/03/11 10:19:16;;;;;;;14.88;7.55;;;10.80;28.60;;;;;;5055741;28;20091;-66
2021/03/11 10:22:03;;;;;;;13.55;6.57;;;10.90;28.60;;;;;;5054596;28;20489;-68
2021/03/11 10:24:45;;;;;;;15.02;7.75;;;11.00;27.90;;;;;;5054598;28;20049;-68
2021/03/11 10:27:31;;;;;;;13.65;7.25;;;10.80;28.00;;;;;;5050609;28;20092;-68
2021/03/11 10:29:59;;;;;;;11.23;7.23;;;10.60;28.20;;;;;;5055736;28;20470;-69
2021/03/11 10:32:25;;;;;;;23.58;7.25;;;10.50;28.20;;;;;;5055382;28;20293;-68
2021/03/11 10:34:51;;;;;;;23.35;9.35;;;10.40;28.70;;;;;;5055666;28;20071;-68
2021/03/11 10:37:28;;;;;;;13.75;7.20;;;10.30;28.20;;;;;;5055430;28;20029;-68
2021/03/11 10:39:59;;;;;;;14.65;7.85;;;10.20;28.20;;;;;;5043283;28;20024;-68
2021/03/11 10:42:37;;;;;;;12.23;8.40;;;10.20;28.40;;;;;;5055620;28;20033;-69
2021/03/11 10:45:04;;;;;;;18.77;11.00;;;10.40;28.60;;;;;;5054885;28;20425;-68
2021/03/11 10:47:30;;;;;;;23.58;13.88;;;10.50;28.40;;;;;;5055683;28;20442;-67
2021/03/11 10:49:56;;;;;;;23.88;13.77;;;10.60;28.30;;;;;;5055301;28;20064;-67
2021/03/11 10:52:22;;;;;;;12.43;7.30;;;10.40;28.30;;;;;;5055397;28;20025;-67
2021/03/11 10:54:48;;;;;;;14.02;7.82;;;10.20;28.30;;;;;;5053909;28;20047;-69
2021/03/11 10:57:21;;;;;;;16.77;7.53;;;9.90;28.40;;;;;;5054822;28;20017;-67
2021/03/11 10:59:52;;;;;;;10.98;5.40;;;9.70;28.70;;;;;;5055122;28;20112;-67
2021/03/11 11:02:20;;;;;;;10.75;5.72;;;9.80;28.60;;;;;;5040170;28;20047;-67
2021/03/11 11:04:46;;;;;;;8.93;5.25;;;9.70;28.60;;;;;;5054882;28;20057;-67
2021/03/11 11:07:12;;;;;;;10.43;5.30;;;9.70;28.70;;;;;;5054579;28;20036;-67
2021/03/11 11:09:39;;;;;;;8.48;4.63;;;9.60;28.60;;;;;;5053689;28;20025;-67
2021/03/11 11:12:13;;;;;;;11.77;6.05;;;9.60;28.60;;;;;;5055074;28;20171;-68
2021/03/11 11:14:40;;;;;;;10.80;5.93;;;9.50;28.90;;;;;;5054785;28;20111;-67
2021/03/11 11:17:06;;;;;;;10.68;6.65;;;9.60;28.80;;;;;;5054720;28;20025;-67
2021/03/11 11:19:31;;;;;;;13.60;5.88;;;9.80;28.60;;;;;;5054955;28;20387;-68
2021/03/11 11:21:59;;;;;;;11.82;6.30;;;9.70;28.50;;;;;;5053547;28;20187;-68
2021/03/11 11:24:24;;;;;;;9.13;5.63;;;9.60;28.60;;;;;;5053019;28;20091;-68
2021/03/11 11:26:52;;;;;;;10.95;5.18;;;9.50;28.50;;;;;;5053639;28;20037;-68
2021/03/11 11:29:18;;;;;;;15.68;5.38;;;9.50;28.50;;;;;;5054317;28;20132;-68
2021/03/11 11:31:43;;;;;;;12.27;5.75;;;9.30;28.50;;;;;;5054894;28;20104;-68
2021/03/11 11:34:09;;;;;;;10.68;6.13;;;9.20;28.60;;;;;;5054367;28;20423;-68
2021/03/11 11:36:35;;;;;;;10.43;6.45;;;9.10;28.60;;;;;;5054298;28;20029;-69
2021/03/11 11:39:00;;;;;;;9.88;5.65;;;9.20;28.80;;;;;;5053888;28;20032;-68
2021/03/11 11:41:26;;;;;;;17.23;6.82;;;9.40;29.00;;;;;;5054173;28;20036;-67
2021/03/11 11:43:52;;;;;;;8.88;5.50;;;9.50;28.70;;;;;;5054543;28;20036;-69
2021/03/11 11:46:17;;;;;;;13.63;6.28;;;9.40;28.70;;;;;;5053090;28;20116;-70
2021/03/11 11:48:43;;;;;;;14.00;6.90;;;9.30;28.70;;;;;;5054161;28;20025;-68
2021/03/11 11:51:09;;;;;;;12.05;4.30;;;9.20;28.30;;;;;;5052629;28;20123;-68
2021/03/11 11:53:34;;;;;;;8.80;5.10;;;8.90;28.00;;;;;;5052528;28;20025;-67
2021/03/11 11:56:00;;;;;;;12.65;6.10;;;8.70;28.30;;;;;;5054445;28;20025;-68
2021/03/11 11:58:25;;;;;;;22.30;9.60;;;8.60;28.50;;;;;;5054069;28;20060;-68
2021/03/11 12:00:51;;;;;;;11.85;6.15;;;8.40;28.60;;;;;;5054095;28;20353;-68
2021/03/11 12:03:17;;;;;;;12.90;7.10;;;8.30;29.00;;;;;;5053824;28;20371;-72
2021/03/11 12:05:42;;;;;;;10.98;6.70;;;8.30;29.00;;;;;;5053978;28;20059;-68
2021/03/11 12:08:08;;;;;;;22.20;13.18;;;8.30;28.90;;;;;;5053717;28;20021;-68
2021/03/11 12:10:35;;;;;;;14.93;8.30;;;8.30;29.10;;;;;;5053925;28;20455;-68
2021/03/11 12:13:01;;;;;;;14.25;8.35;;;8.20;29.00;;;;;;5054152;28;20175;-68
2021/03/11 12:15:28;;;;;;;17.35;9.65;;;8.00;29.10;;;;;;5052495;28;20363;-68
2021/03/11 12:17:53;;;;;;;9.98;5.70;;;7.80;29.50;;;;;;5052620;28;20025;-68
2021/03/11 12:20:19;;;;;;;9.43;5.30;;;7.50;29.80;;;;;;5053618;28;20025;-69
2021/03/11 12:22:45;;;;;;;11.98;6.65;;;7.40;29.80;;;;;;5053549;28;20025;-68
2021/03/11 12:25:11;;;;;;;11.43;6.15;;;7.00;29.90;;;;;;5052665;28;20459;-68
2021/03/11 12:27:36;;;;;;;16.95;7.90;;;6.70;30.10;;;;;;5053241;28;20383;-68
2021/03/11 12:30:03;;;;;;;14.75;7.90;;;6.40;30.60;;;;;;5053471;28;20028;-68
2021/03/11 12:32:29;;;;;;;15.18;6.30;;;6.10;31.00;;;;;;5053403;28;20029;-68
2021/03/11 12:34:54;;;;;;;11.88;6.70;;;5.70;31.60;;;;;;5053368;28;20040;-68
2021/03/11 12:37:20;;;;;;;13.13;7.38;;;5.20;32.20;;;;;;5052880;28;20037;-68
2021/03/11 12:39:46;;;;;;;16.65;7.57;;;4.80;33.10;;;;;;5053704;28;20033;-68
2021/03/11 12:42:12;;;;;;;12.65;6.22;;;4.50;33.10;;;;;;5053549;28;20033;-67